Back to Top

Language: 

My Weather Underground Personal Weather Station Historical Data with Graphs...

Delerius Weather Station Historical Data
Daily Summary for February 14, 2017 Units:  English    Metric   Both
« Previous Day
Next Day »
Daily Weekly Monthly Yearly Custom
  High: Low: Average:
Temperature: 45.5 °F 31.6 °F 39.4 °F
Dew Point: 41.9 °F 30.8 °F 37.1 °F
Humidity: 98 % 80 % 92 %
Wind Speed: 8.0 mph 0.0 mph 1.9 mph
Wind Gust: 13.0 mph - -
Wind:- - ESE
Pressure: 30.30 in 30.22 in -
Precipitation: 0.00 in    
Historical Graphs
 
 
Tabular Data for February 14, 2017
Time Temperature Dew Point Pressure Wind Wind Speed Wind Gust Humidity Rainfall Rate (Hourly) solar Conditions
00:00 37.2 °F 35.4 °F 30.28 in ENE 5.0 mph 5.0 mph 93 % 0.00 in 0 W/m2
00:05 37.1 °F 35.3 °F 30.28 in NE 5.0 mph 5.0 mph 93 % 0.00 in 0 W/m2
00:15 36.9 °F 35.3 °F 30.27 in NE 5.0 mph 5.0 mph 94 % 0.00 in 0 W/m2
00:25 36.8 °F 35.2 °F 30.27 in ENE 4.0 mph 4.0 mph 94 % 0.00 in 0 W/m2
00:30 36.7 °F 35.1 °F 30.27 in ENE 3.0 mph 3.0 mph 94 % 0.00 in 0 W/m2
00:40 36.6 °F 35.0 °F 30.27 in ENE 2.0 mph 4.0 mph 94 % 0.00 in 0 W/m2
00:45 36.5 °F 34.9 °F 30.27 in ENE 2.0 mph 4.0 mph 94 % 0.00 in 0 W/m2
00:55 36.3 °F 34.7 °F 30.26 in ENE 2.0 mph 5.0 mph 94 % 0.00 in 0 W/m2
01:00 36.3 °F 35.0 °F 30.26 in East 2.0 mph 4.0 mph 95 % 0.00 in 0 W/m2
01:05 36.2 °F 34.9 °F 30.26 in NE 2.0 mph 6.0 mph 95 % 0.00 in 0 W/m2
01:15 36.1 °F 34.8 °F 30.26 in ENE 3.0 mph 7.0 mph 95 % 0.00 in 0 W/m2
01:20 36.1 °F 34.8 °F 30.26 in ENE 3.0 mph 3.0 mph 95 % 0.00 in 0 W/m2
01:25 36.1 °F 34.8 °F 30.25 in East 2.0 mph 10.0 mph 95 % 0.00 in 0 W/m2
01:35 35.8 °F 34.5 °F 30.26 in NE 1.0 mph 10.0 mph 95 % 0.00 in 0 W/m2
01:40 35.7 °F 34.4 °F 30.26 in East 1.0 mph 1.0 mph 95 % 0.00 in 0 W/m2
01:50 35.4 °F 34.1 °F 30.26 in East 1.0 mph 1.0 mph 95 % 0.00 in 0 W/m2
02:00 35.3 °F 34.0 °F 30.26 in ESE 1.0 mph 10.0 mph 95 % 0.00 in 0 W/m2
02:10 35.4 °F 34.1 °F 30.25 in ENE 2.0 mph 10.0 mph 95 % 0.00 in 0 W/m2
02:15 35.3 °F 34.0 °F 30.25 in ENE 1.0 mph 10.0 mph 95 % 0.00 in 0 W/m2
02:20 35.3 °F 34.3 °F 30.25 in SE 1.0 mph 10.0 mph 96 % 0.00 in 0 W/m2
02:30 35.3 °F 34.3 °F 30.25 in ESE 1.0 mph 1.0 mph 96 % 0.00 in 0 W/m2
02:35 35.2 °F 34.2 °F 30.25 in ESE 1.0 mph 2.0 mph 96 % 0.00 in 0 W/m2
02:40 35.1 °F 34.1 °F 30.25 in ENE 2.0 mph 10.0 mph 96 % 0.00 in 0 W/m2
02:45 35.1 °F 34.1 °F 30.25 in East 2.0 mph 10.0 mph 96 % 0.00 in 0 W/m2
02:55 35.0 °F 34.0 °F 30.25 in East 1.0 mph 10.0 mph 96 % 0.00 in 0 W/m2
03:00 35.0 °F 34.0 °F 30.25 in ENE 1.0 mph 1.0 mph 96 % 0.00 in 0 W/m2
03:05 34.9 °F 33.9 °F 30.25 in Calm   10.0 mph 96 % 0.00 in 0 W/m2
03:15 34.7 °F 33.7 °F 30.25 in Calm   10.0 mph 96 % 0.00 in 0 W/m2
03:20 34.4 °F 33.4 °F 30.25 in Calm   10.0 mph 96 % 0.00 in 0 W/m2
03:25 34.2 °F 33.2 °F 30.24 in Calm   10.0 mph 96 % 0.00 in 0 W/m2
03:30 34.3 °F 33.3 °F 30.24 in East 1.0 mph 10.0 mph 96 % 0.00 in 0 W/m2
03:40 34.5 °F 33.5 °F 30.24 in NE 1.0 mph 10.0 mph 96 % 0.00 in 0 W/m2
03:45 34.8 °F 33.8 °F 30.24 in East 3.0 mph 10.0 mph 96 % 0.00 in 0 W/m2
03:50 35.0 °F 34.2 °F 30.23 in ENE 4.0 mph 10.0 mph 97 % 0.00 in 0 W/m2
03:55 35.1 °F 34.3 °F 30.23 in East 4.0 mph 10.0 mph 97 % 0.00 in 0 W/m2
04:05 34.7 °F 33.7 °F 30.24 in Calm   10.0 mph 96 % 0.00 in 0 W/m2
04:10 34.2 °F 33.2 °F 30.23 in Calm   10.0 mph 96 % 0.00 in 0 W/m2
04:15 33.8 °F 32.8 °F 30.23 in Calm   10.0 mph 96 % 0.00 in 0 W/m2
04:20 33.7 °F 32.7 °F 30.23 in East 1.0 mph 1.0 mph 96 % 0.00 in 0 W/m2
04:25 33.6 °F 32.6 °F 30.23 in Calm   10.0 mph 96 % 0.00 in 0 W/m2
04:35 33.3 °F 32.3 °F 30.23 in Calm   10.0 mph 96 % 0.00 in 0 W/m2
04:40 33.1 °F 32.1 °F 30.23 in Calm   10.0 mph 96 % 0.00 in 0 W/m2
04:45 33.3 °F 32.5 °F 30.23 in ENE 1.0 mph 10.0 mph 97 % 0.00 in 0 W/m2
04:50 33.7 °F 32.9 °F 30.23 in East 2.0 mph 10.0 mph 97 % 0.00 in 0 W/m2
05:05 34.3 °F 33.5 °F 30.23 in ESE 3.0 mph 10.0 mph 97 % 0.00 in 0 W/m2
05:10 34.3 °F 33.5 °F 30.23 in ESE 2.0 mph 2.0 mph 97 % 0.00 in 0 W/m2
05:15 34.3 °F 33.5 °F 30.23 in ESE 2.0 mph 10.0 mph 97 % 0.00 in 0 W/m2
05:20 34.2 °F 33.4 °F 30.23 in ESE 1.0 mph 1.0 mph 97 % 0.00 in 0 W/m2
05:30 33.5 °F 32.5 °F 30.23 in Calm   10.0 mph 96 % 0.00 in 0 W/m2
05:35 33.2 °F 32.2 °F 30.23 in Calm   10.0 mph 96 % 0.00 in 0 W/m2
05:40 33.1 °F 32.1 °F 30.23 in Calm   10.0 mph 96 % 0.00 in 0 W/m2
05:45 33.3 °F 32.5 °F 30.23 in ESE 1.0 mph 10.0 mph 97 % 0.00 in 0 W/m2
05:55 33.4 °F 32.6 °F 30.23 in ENE 1.0 mph 10.0 mph 97 % 0.00 in 0 W/m2
06:00 33.4 °F 32.6 °F 30.22 in ENE 2.0 mph 2.0 mph 97 % 0.00 in 0 W/m2
06:05 33.4 °F 32.6 °F 30.22 in East 2.0 mph 10.0 mph 97 % 0.00 in 0 W/m2
06:15 33.5 °F 32.7 °F 30.22 in East 2.0 mph 10.0 mph 97 % 0.00 in 0 W/m2
06:20 33.6 °F 32.8 °F 30.22 in East 2.0 mph 10.0 mph 97 % 0.00 in 0 W/m2
06:25 33.6 °F 32.8 °F 30.22 in ENE 3.0 mph 10.0 mph 97 % 0.00 in 0 W/m2
06:30 33.6 °F 32.8 °F 30.22 in East 3.0 mph 10.0 mph 97 % 0.00 in 0 W/m2
06:40 33.7 °F 32.9 °F 30.22 in SE 2.0 mph 2.0 mph 97 % 0.00 in 0 W/m2
06:45 33.7 °F 32.9 °F 30.22 in East 1.0 mph 4.0 mph 97 % 0.00 in 0 W/m2
06:50 33.6 °F 32.8 °F 30.22 in ESE 1.0 mph 1.0 mph 97 % 0.00 in 0 W/m2
06:55 33.6 °F 32.8 °F 30.22 in ENE 2.0 mph 2.0 mph 97 % 0.00 in 0 W/m2
07:05 33.6 °F 32.8 °F 30.23 in East 1.0 mph 10.0 mph 97 % 0.00 in 0 W/m2
07:10 33.5 °F 32.7 °F 30.23 in Calm   10.0 mph 97 % 0.00 in 0 W/m2
07:15 33.3 °F 32.5 °F 30.23 in Calm   10.0 mph 97 % 0.00 in 0 W/m2
07:25 33.2 °F 32.4 °F 30.23 in Calm   10.0 mph 97 % 0.00 in 5 W/m2
07:30 33.0 °F 32.2 °F 30.24 in Calm   10.0 mph 97 % 0.00 in 5 W/m2
07:35 32.7 °F 31.9 °F 30.24 in Calm   10.0 mph 97 % 0.00 in 9 W/m2
07:45 32.1 °F 31.1 °F 30.24 in Calm   10.0 mph 96 % 0.00 in 14 W/m2
07:50 32.0 °F 31.2 °F 30.24 in Calm   10.0 mph 97 % 0.00 in 18 W/m2
07:55 31.9 °F 31.1 °F 30.24 in Calm   10.0 mph 97 % 0.00 in 23 W/m2
08:00 31.8 °F 31.0 °F 30.24 in Calm   10.0 mph 97 % 0.00 in 28 W/m2
08:05 31.7 °F 30.9 °F 30.24 in Calm   10.0 mph 97 % 0.00 in 32 W/m2
08:15 31.6 °F 30.8 °F 30.24 in Calm   10.0 mph 97 % 0.00 in 46 W/m2
08:20 31.6 °F 30.8 °F 30.24 in Calm   10.0 mph 97 % 0.00 in 53 W/m2
08:30 31.8 °F 31.0 °F 30.24 in Calm   10.0 mph 97 % 0.00 in 65 W/m2
08:35 32.0 °F 31.2 °F 30.24 in Calm   10.0 mph 97 % 0.00 in 70 W/m2
08:40 32.2 °F 31.4 °F 30.24 in Calm   10.0 mph 97 % 0.00 in 79 W/m2
08:45 32.4 °F 31.6 °F 30.24 in Calm   10.0 mph 97 % 0.00 in 88 W/m2
08:50 32.7 °F 32.2 °F 30.24 in Calm   10.0 mph 98 % 0.00 in 93 W/m2
09:00 33.8 °F 33.3 °F 30.25 in Calm   10.0 mph 98 % 0.00 in 116 W/m2
09:05 34.3 °F 33.8 °F 30.24 in Calm   10.0 mph 98 % 0.00 in 128 W/m2
09:10 34.6 °F 34.1 °F 30.25 in Calm   10.0 mph 98 % 0.00 in 137 W/m2
09:15 34.9 °F 34.4 °F 30.24 in Calm   10.0 mph 98 % 0.00 in 142 W/m2
09:25 35.5 °F 35.0 °F 30.25 in ESE 1.0 mph 10.0 mph 98 % 0.00 in 135 W/m2
09:30 35.7 °F 35.2 °F 30.25 in ESE 1.0 mph 1.0 mph 98 % 0.00 in 165 W/m2
09:35 35.6 °F 35.1 °F 30.25 in Calm   10.0 mph 98 % 0.00 in 178 W/m2
09:45 36.0 °F 35.5 °F 30.25 in Calm   10.0 mph 98 % 0.00 in 195 W/m2
09:50 36.3 °F 35.8 °F 30.25 in SE 1.0 mph 10.0 mph 98 % 0.00 in 192 W/m2
09:55 36.6 °F 36.1 °F 30.25 in East 1.0 mph 10.0 mph 98 % 0.00 in 213 W/m2
10:00 37.0 °F 36.5 °F 30.25 in SE 2.0 mph 2.0 mph 98 % 0.00 in 214 W/m2
10:05 37.2 °F 36.7 °F 30.26 in SSE 2.0 mph 5.0 mph 98 % 0.00 in 234 W/m2
10:15 37.6 °F 37.1 °F 30.26 in East 4.0 mph 6.0 mph 98 % 0.00 in 199 W/m2
10:20 37.7 °F 37.2 °F 30.26 in ESE 5.0 mph 10.0 mph 98 % 0.00 in 244 W/m2
10:25 37.8 °F 37.0 °F 30.26 in ESE 5.0 mph 10.0 mph 97 % 0.00 in 265 W/m2
10:35 38.1 °F 37.3 °F 30.26 in ESE 7.0 mph 7.0 mph 97 % 0.00 in 287 W/m2
10:40 38.5 °F 37.7 °F 30.26 in ENE 6.0 mph 10.0 mph 97 % 0.00 in 290 W/m2
10:45 38.7 °F 37.7 °F 30.26 in ESE 6.0 mph 10.0 mph 96 % 0.00 in 313 W/m2
10:50 39.0 °F 37.7 °F 30.26 in East 6.0 mph 10.0 mph 95 % 0.00 in 316 W/m2
10:55 39.2 °F 37.6 °F 30.25 in ESE 5.0 mph 10.0 mph 94 % 0.00 in 343 W/m2
11:05 39.8 °F 37.9 °F 30.25 in ESE 6.0 mph 10.0 mph 93 % 0.00 in 327 W/m2
11:10 40.2 °F 38.1 °F 30.25 in ENE 5.0 mph 10.0 mph 92 % 0.00 in 330 W/m2
11:15 40.5 °F 38.1 °F 30.25 in ESE 5.0 mph 10.0 mph 91 % 0.00 in 420 W/m2
11:20 40.6 °F 38.2 °F 30.25 in ESE 6.0 mph 6.0 mph 91 % 0.00 in 371 W/m2
11:30 40.9 °F 37.9 °F 30.25 in SE 7.0 mph 10.0 mph 89 % 0.00 in 185 W/m2
11:35 40.9 °F 37.6 °F 30.25 in SE 7.0 mph 10.0 mph 88 % 0.00 in 220 W/m2
11:40 40.8 °F 37.5 °F 30.25 in SE 6.0 mph 10.0 mph 88 % 0.00 in 204 W/m2
11:45 40.7 °F 37.4 °F 30.25 in ESE 7.0 mph 10.0 mph 88 % 0.00 in 149 W/m2
11:55 40.7 °F 37.4 °F 30.25 in ESE 6.0 mph 10.0 mph 88 % 0.00 in 149 W/m2
12:05 40.9 °F 37.6 °F 30.25 in SE 5.0 mph 10.0 mph 88 % 0.00 in 153 W/m2
12:10 41.0 °F 37.7 °F 30.25 in SE 4.0 mph 13.0 mph 88 % 0.00 in 186 W/m2
12:20 41.0 °F 37.4 °F 30.25 in SE 8.0 mph 10.0 mph 87 % 0.00 in 178 W/m2
12:25 41.1 °F 37.5 °F 30.25 in SE 8.0 mph 10.0 mph 87 % 0.00 in 172 W/m2
12:30 41.3 °F 37.7 °F 30.25 in ESE 6.0 mph 6.0 mph 87 % 0.00 in 193 W/m2
12:35 41.4 °F 37.5 °F 30.25 in SE 6.0 mph 10.0 mph 86 % 0.00 in 199 W/m2
12:40 41.4 °F 37.5 °F 30.25 in ESE 6.0 mph 10.0 mph 86 % 0.00 in 181 W/m2
12:50 41.6 °F 37.7 °F 30.25 in SE 6.0 mph 6.0 mph 86 % 0.00 in 350 W/m2
12:55 42.0 °F 38.4 °F 30.25 in SE 5.0 mph 10.0 mph 87 % 0.00 in 320 W/m2
13:00 42.3 °F 38.4 °F 30.25 in ESE 6.0 mph 6.0 mph 86 % 0.00 in 262 W/m2
13:10 42.5 °F 38.6 °F 30.25 in SE 5.0 mph 10.0 mph 86 % 0.00 in 188 W/m2
13:15 42.6 °F 38.4 °F 30.25 in SSE 6.0 mph 10.0 mph 85 % 0.00 in 232 W/m2
13:20 42.7 °F 38.5 °F 30.25 in SSE 6.0 mph 10.0 mph 85 % 0.00 in 371 W/m2
13:35 43.1 °F 38.6 °F 30.25 in ESE 7.0 mph 10.0 mph 84 % 0.00 in 216 W/m2
13:40 43.2 °F 38.7 °F 30.25 in SE 5.0 mph 5.0 mph 84 % 0.00 in 158 W/m2
13:55 43.7 °F 39.2 °F 30.25 in SE 6.0 mph 10.0 mph 84 % 0.00 in 295 W/m2
14:05 44.2 °F 39.1 °F 30.25 in ESE 4.0 mph 10.0 mph 82 % 0.00 in 290 W/m2
14:15 44.4 °F 39.2 °F 30.25 in South 4.0 mph 10.0 mph 82 % 0.00 in 206 W/m2
14:20 44.5 °F 39.3 °F 30.25 in SE 4.0 mph 10.0 mph 82 % 0.00 in 274 W/m2
14:25 44.7 °F 39.5 °F 30.25 in SE 3.0 mph 10.0 mph 82 % 0.00 in 246 W/m2
14:30 45.0 °F 39.8 °F 30.25 in ESE 2.0 mph 10.0 mph 82 % 0.00 in 251 W/m2
14:40 45.3 °F 39.8 °F 30.25 in SE 2.0 mph 10.0 mph 81 % 0.00 in 232 W/m2
14:50 45.4 °F 39.6 °F 30.25 in ESE 3.0 mph 3.0 mph 80 % 0.00 in 236 W/m2
14:55 45.5 °F 40.0 °F 30.25 in SE 4.0 mph 4.0 mph 81 % 0.00 in 216 W/m2
15:00 45.5 °F 39.7 °F 30.25 in ESE 4.0 mph 10.0 mph 80 % 0.00 in 214 W/m2
15:10 45.5 °F 40.0 °F 30.25 in ESE 5.0 mph 10.0 mph 81 % 0.00 in 174 W/m2
15:15 45.4 °F 39.9 °F 30.25 in ESE 5.0 mph 10.0 mph 81 % 0.00 in 169 W/m2
15:20 45.3 °F 39.8 °F 30.25 in ESE 5.0 mph 10.0 mph 81 % 0.00 in 139 W/m2
15:35 44.9 °F 39.4 °F 30.25 in ESE 5.0 mph 10.0 mph 81 % 0.00 in 113 W/m2
15:40 44.8 °F 39.6 °F 30.25 in ESE 5.0 mph 5.0 mph 82 % 0.00 in 107 W/m2
15:45 44.6 °F 39.4 °F 30.26 in ESE 4.0 mph 10.0 mph 82 % 0.00 in 86 W/m2
15:50 44.6 °F 39.8 °F 30.26 in SE 4.0 mph 4.0 mph 83 % 0.00 in 76 W/m2
16:00 44.4 °F 39.6 °F 30.26 in SE 5.0 mph 10.0 mph 83 % 0.00 in 74 W/m2
16:05 44.3 °F 39.8 °F 30.27 in ESE 4.0 mph 10.0 mph 84 % 0.00 in 60 W/m2
16:10 44.3 °F 39.8 °F 30.27 in SE 4.0 mph 4.0 mph 84 % 0.00 in 40 W/m2
16:20 44.2 °F 39.7 °F 30.27 in SE 4.0 mph 10.0 mph 84 % 0.00 in 23 W/m2
16:25 44.1 °F 39.9 °F 30.26 in East 4.0 mph 10.0 mph 85 % 0.00 in 21 W/m2
16:30 44.1 °F 39.9 °F 30.27 in SE 3.0 mph 10.0 mph 85 % 0.00 in 21 W/m2
16:40 44.1 °F 39.9 °F 30.27 in ESE 2.0 mph 10.0 mph 85 % 0.00 in 9 W/m2
16:45 44.1 °F 39.9 °F 30.26 in ESE 2.0 mph 10.0 mph 85 % 0.00 in 9 W/m2
16:50 44.1 °F 39.9 °F 30.26 in ESE 2.0 mph 2.0 mph 85 % 0.00 in 9 W/m2
17:00 43.8 °F 39.9 °F 30.26 in ESE 1.0 mph 1.0 mph 86 % 0.00 in 5 W/m2
17:05 43.6 °F 39.7 °F 30.26 in East 1.0 mph 10.0 mph 86 % 0.00 in 0 W/m2
17:10 43.6 °F 39.7 °F 30.26 in ESE 1.0 mph 10.0 mph 86 % 0.00 in 0 W/m2
17:20 43.5 °F 39.9 °F 30.27 in ESE 1.0 mph 1.0 mph 87 % 0.00 in 0 W/m2
17:25 43.5 °F 39.9 °F 30.27 in Calm   4.0 mph 87 % 0.00 in 0 W/m2
17:30 43.5 °F 39.9 °F 30.27 in Calm   10.0 mph 87 % 0.00 in 0 W/m2
17:40 43.6 °F 40.3 °F 30.28 in ESE 1.0 mph 1.0 mph 88 % 0.00 in 0 W/m2
17:45 43.6 °F 40.0 °F 30.28 in ESE 2.0 mph 2.0 mph 87 % 0.00 in 0 W/m2
17:50 43.6 °F 40.0 °F 30.28 in ESE 1.0 mph 1.0 mph 87 % 0.00 in 0 W/m2
17:55 43.5 °F 40.2 °F 30.29 in Calm   10.0 mph 88 % 0.00 in 0 W/m2
18:05 43.5 °F 40.2 °F 30.28 in ESE 1.0 mph 10.0 mph 88 % 0.00 in 0 W/m2
18:10 43.6 °F 40.3 °F 30.28 in Calm   10.0 mph 88 % 0.00 in 0 W/m2
18:15 43.6 °F 40.3 °F 30.28 in Calm   10.0 mph 88 % 0.00 in 0 W/m2
18:25 43.6 °F 40.3 °F 30.28 in ESE 1.0 mph 10.0 mph 88 % 0.00 in 0 W/m2
18:30 43.6 °F 40.3 °F 30.28 in ESE 1.0 mph 1.0 mph 88 % 0.00 in 0 W/m2
18:35 43.6 °F 40.6 °F 30.28 in Calm   10.0 mph 89 % 0.00 in 0 W/m2
18:40 43.6 °F 40.6 °F 30.28 in Calm   10.0 mph 89 % 0.00 in 0 W/m2
18:50 43.7 °F 40.4 °F 30.28 in Calm   10.0 mph 88 % 0.00 in 0 W/m2
18:55 43.6 °F 40.6 °F 30.29 in Calm   10.0 mph 89 % 0.00 in 0 W/m2
19:00 43.6 °F 40.6 °F 30.29 in Calm   10.0 mph 89 % 0.00 in 0 W/m2
19:10 43.6 °F 40.6 °F 30.28 in Calm   10.0 mph 89 % 0.00 in 0 W/m2
19:15 43.5 °F 40.5 °F 30.28 in Calm   10.0 mph 89 % 0.00 in 0 W/m2
19:20 43.5 °F 40.5 °F 30.28 in Calm   10.0 mph 89 % 0.00 in 0 W/m2
19:30 43.5 °F 40.5 °F 30.28 in Calm   10.0 mph 89 % 0.00 in 0 W/m2
19:35 43.5 °F 40.8 °F 30.28 in Calm   10.0 mph 90 % 0.00 in 0 W/m2
19:40 43.6 °F 40.9 °F 30.28 in Calm   10.0 mph 90 % 0.00 in 0 W/m2
19:50 43.6 °F 40.9 °F 30.28 in Calm   10.0 mph 90 % 0.00 in 0 W/m2
19:55 43.6 °F 40.9 °F 30.28 in Calm   10.0 mph 90 % 0.00 in 0 W/m2
20:00 43.6 °F 40.9 °F 30.28 in Calm   10.0 mph 90 % 0.00 in 0 W/m2
20:10 43.6 °F 40.9 °F 30.28 in Calm   10.0 mph 90 % 0.00 in 0 W/m2
20:15 43.5 °F 40.8 °F 30.28 in Calm   10.0 mph 90 % 0.00 in 0 W/m2
20:20 43.5 °F 40.8 °F 30.28 in Calm   10.0 mph 90 % 0.00 in 0 W/m2
20:25 43.5 °F 40.8 °F 30.28 in Calm   10.0 mph 90 % 0.00 in 0 W/m2
20:30 43.5 °F 40.8 °F 30.28 in Calm   10.0 mph 90 % 0.00 in 0 W/m2
20:40 43.5 °F 41.0 °F 30.28 in Calm   10.0 mph 91 % 0.00 in 0 W/m2
20:45 43.5 °F 41.0 °F 30.28 in Calm   10.0 mph 91 % 0.00 in 0 W/m2
20:50 43.6 °F 40.9 °F 30.28 in Calm   10.0 mph 90 % 0.00 in 0 W/m2
21:00 43.6 °F 41.1 °F 30.28 in Calm   10.0 mph 91 % 0.00 in 0 W/m2
21:05 43.7 °F 41.0 °F 30.29 in Calm   10.0 mph 90 % 0.00 in 0 W/m2
21:10 43.7 °F 41.2 °F 30.29 in Calm   10.0 mph 91 % 0.00 in 0 W/m2
21:20 43.5 °F 40.8 °F 30.29 in Calm   10.0 mph 90 % 0.00 in 0 W/m2
21:25 43.4 °F 40.9 °F 30.29 in Calm   10.0 mph 91 % 0.00 in 0 W/m2
21:30 43.5 °F 41.0 °F 30.29 in Calm   10.0 mph 91 % 0.00 in 0 W/m2
21:35 43.5 °F 41.0 °F 30.29 in ESE 1.0 mph 10.0 mph 91 % 0.00 in 0 W/m2
21:45 43.6 °F 41.1 °F 30.28 in Calm   10.0 mph 91 % 0.00 in 0 W/m2
21:50 43.6 °F 41.1 °F 30.28 in Calm   10.0 mph 91 % 0.00 in 0 W/m2
21:55 43.7 °F 41.2 °F 30.28 in Calm   10.0 mph 91 % 0.00 in 0 W/m2
22:05 43.7 °F 41.2 °F 30.29 in Calm   10.0 mph 91 % 0.00 in 0 W/m2
22:10 43.7 °F 41.2 °F 30.29 in Calm   10.0 mph 91 % 0.00 in 0 W/m2
22:15 43.7 °F 41.2 °F 30.29 in Calm   10.0 mph 91 % 0.00 in 0 W/m2
22:20 43.7 °F 41.2 °F 30.29 in Calm   10.0 mph 91 % 0.00 in 0 W/m2
22:25 43.7 °F 41.2 °F 30.29 in Calm   10.0 mph 91 % 0.00 in 0 W/m2
22:30 43.6 °F 41.1 °F 30.29 in Calm   10.0 mph 91 % 0.00 in 0 W/m2
22:40 43.6 °F 41.1 °F 30.28 in Calm   10.0 mph 91 % 0.00 in 0 W/m2
22:45 43.6 °F 41.1 °F 30.29 in ESE 1.0 mph 10.0 mph 91 % 0.00 in 0 W/m2
22:50 43.6 °F 41.4 °F 30.29 in ESE 1.0 mph 1.0 mph 92 % 0.00 in 0 W/m2
22:55 43.7 °F 41.5 °F 30.29 in Calm   10.0 mph 92 % 0.00 in 0 W/m2
23:05 43.8 °F 41.6 °F 30.29 in Calm   10.0 mph 92 % 0.00 in 0 W/m2
23:10 43.9 °F 41.7 °F 30.29 in Calm   10.0 mph 92 % 0.00 in 0 W/m2
23:15 43.9 °F 41.7 °F 30.29 in Calm   10.0 mph 92 % 0.00 in 0 W/m2
23:25 44.0 °F 41.8 °F 30.29 in Calm   10.0 mph 92 % 0.00 in 0 W/m2
23:30 44.0 °F 41.8 °F 30.29 in Calm   10.0 mph 92 % 0.00 in 0 W/m2
23:35 44.1 °F 41.9 °F 30.29 in Calm   10.0 mph 92 % 0.00 in 0 W/m2
23:40 44.1 °F 41.9 °F 30.30 in Calm   10.0 mph 92 % 0.00 in 0 W/m2
23:50 44.1 °F 41.9 °F 30.30 in Calm   10.0 mph 92 % 0.00 in 0 W/m2
23:55 44.1 °F 41.9 °F 30.30 in Calm   10.0 mph 92 % 0.00 in 0 W/m2
Delerius-Weather
Compliments of Weather Underground - 2 mb

Data updates at regular intervals.